createdAt,value
2019-05-15T00:02:10.612Z,61.93
2019-05-15T00:04:38.820Z,61.97
2019-05-15T00:07:10.373Z,62.27
2019-05-15T00:09:42.053Z,62.10
2019-05-15T00:12:13.553Z,62.68
2019-05-15T00:14:45.157Z,63.17
2019-05-15T00:17:19.006Z,63.58
2019-05-15T00:19:50.033Z,63.40
2019-05-15T00:22:21.636Z,63.56
2019-05-15T00:24:53.206Z,63.25
2019-05-15T00:27:24.836Z,62.99
2019-05-15T00:29:57.913Z,62.91
2019-05-15T00:32:29.657Z,63.30
2019-05-15T00:35:01.276Z,63.38
2019-05-15T00:37:32.838Z,63.34
2019-05-15T00:40:04.431Z,63.48
2019-05-15T00:42:38.107Z,63.39
2019-05-15T00:45:09.782Z,63.57
2019-05-15T00:47:41.363Z,63.67
2019-05-15T00:50:13.027Z,63.74
2019-05-15T00:52:44.570Z,63.94
2019-05-15T00:55:16.285Z,64.29
2019-05-15T00:57:48.576Z,64.29
2019-05-15T01:00:43.651Z,64.40
2019-05-15T01:03:15.193Z,65.07
2019-05-15T01:05:48.020Z,64.79
2019-05-15T01:08:19.765Z,64.57
2019-05-15T01:10:51.407Z,64.95
2019-05-15T01:13:22.942Z,64.99
2019-05-15T01:15:54.598Z,65.06
2019-05-15T01:18:26.131Z,64.98
2019-05-15T01:20:58.706Z,65.28
2019-05-15T01:23:30.338Z,65.26
2019-05-15T01:26:02.517Z,65.61
2019-05-15T01:28:34.055Z,65.71
2019-05-15T01:31:05.609Z,65.58
2019-05-15T01:33:39.204Z,65.61
2019-05-15T01:36:10.408Z,66.02
2019-05-15T01:38:41.965Z,66.71
2019-05-15T01:41:13.531Z,67.21
2019-05-15T01:43:45.070Z,67.26
2019-05-15T01:46:18.906Z,67.47
2019-05-15T01:48:49.879Z,67.35
2019-05-15T01:51:21.447Z,67.66
2019-05-15T01:53:52.986Z,67.49
2019-05-15T01:56:24.545Z,67.56
2019-05-15T01:58:57.970Z,67.20
2019-05-15T02:01:29.342Z,67.94
2019-05-15T02:04:00.882Z,68.24
2019-05-15T02:06:32.430Z,67.81
2019-05-15T02:09:08.295Z,68.41
2019-05-15T02:11:39.478Z,68.61
2019-05-15T02:14:11.047Z,68.89
2019-05-15T02:16:42.582Z,69.19
2019-05-15T02:19:14.141Z,69.44
2019-05-15T02:21:45.711Z,69.46
2019-05-15T02:24:18.858Z,69.26
2019-05-15T02:26:51.770Z,69.43
2019-05-15T02:29:25.189Z,69.03
2019-05-15T02:31:59.294Z,69.43
2019-05-15T02:34:30.917Z,69.49
2019-05-15T02:37:02.445Z,69.53
2019-05-15T02:39:33.999Z,69.83
2019-05-15T02:42:09.559Z,69.25
2019-05-15T02:44:39.946Z,69.23
2019-05-15T02:47:11.914Z,69.78
2019-05-15T02:49:43.475Z,69.84
2019-05-15T02:52:15.134Z,69.90
2019-05-15T02:54:49.725Z,69.56
2019-05-15T02:57:19.930Z,69.47
2019-05-15T02:59:51.490Z,69.86
2019-05-15T03:02:23.039Z,69.81
2019-05-15T03:04:54.598Z,69.02
2019-05-15T03:07:29.290Z,68.79
2019-05-15T03:10:00.075Z,68.61
2019-05-15T03:12:31.807Z,68.96
2019-05-15T03:15:03.477Z,68.86
2019-05-15T03:17:35.024Z,68.61
2019-05-15T03:20:10.386Z,68.44
2019-05-15T03:22:40.743Z,67.96
2019-05-15T03:25:12.653Z,67.21
2019-05-15T03:27:44.191Z,67.15
2019-05-15T03:30:21.075Z,67.25
2019-05-15T03:33:00.577Z,67.31
2019-05-15T03:35:23.569Z,66.92
2019-05-15T03:37:55.285Z,66.67
2019-05-15T03:40:29.574Z,66.81
2019-05-15T03:43:00.069Z,66.34
2019-05-15T03:45:31.604Z,66.32
2019-05-15T03:48:03.148Z,66.24
2019-05-15T03:50:34.668Z,66.57
2019-05-15T03:53:09.800Z,65.81
2019-05-15T03:55:40.412Z,66.31
2019-05-15T03:58:12.468Z,65.62
2019-05-15T04:00:44.010Z,64.69
2019-05-15T04:03:15.553Z,64.64
2019-05-15T04:05:49.408Z,64.19
2019-05-15T04:08:20.379Z,64.23
2019-05-15T04:10:51.936Z,64.30
2019-05-15T04:13:23.466Z,63.66
2019-05-15T04:15:55.055Z,64.24
2019-05-15T04:18:29.156Z,64.00
2019-05-15T04:21:00.414Z,63.37
2019-05-15T04:23:32.052Z,63.41
2019-05-15T04:26:03.911Z,63.17
2019-05-15T04:28:41.265Z,62.59
2019-05-15T04:31:10.755Z,62.74
2019-05-15T04:33:42.283Z,63.27
2019-05-15T04:36:13.872Z,64.32
2019-05-15T04:38:49.372Z,65.17
2019-05-15T04:41:19.799Z,65.98
2019-05-15T04:43:51.692Z,65.66
2019-05-15T04:46:23.366Z,65.42
2019-05-15T04:48:54.899Z,65.41
2019-05-15T04:51:30.158Z,65.65
2019-05-15T04:53:59.692Z,65.73
2019-05-15T04:56:31.251Z,65.57
2019-05-15T04:59:02.812Z,66.16
2019-05-15T05:01:34.458Z,65.72
2019-05-15T05:04:06.019Z,65.29
2019-05-15T05:06:38.691Z,64.36
2019-05-15T05:09:10.512Z,64.38
2019-05-15T05:11:42.278Z,64.44
2019-05-15T05:14:13.833Z,62.38
2019-05-15T05:16:48.662Z,62.99
2019-05-15T05:19:19.532Z,63.73
2019-05-15T05:21:51.368Z,61.23
2019-05-15T05:24:22.943Z,60.63
2019-05-15T05:26:54.502Z,59.35
2019-05-15T05:29:27.999Z,60.73
2019-05-15T05:31:59.390Z,60.28
2019-05-15T05:34:30.943Z,59.81
2019-05-15T05:37:02.487Z,59.33
2019-05-15T05:39:34.040Z,56.38
2019-05-15T05:42:07.879Z,56.75
2019-05-15T05:44:42.624Z,54.20
2019-05-15T05:47:12.887Z,52.97
2019-05-15T05:49:44.436Z,53.32
2019-05-15T05:52:18.165Z,53.27
2019-05-15T05:54:49.287Z,50.96
2019-05-15T05:57:20.847Z,50.24
2019-05-15T05:59:52.454Z,50.98
2019-05-15T06:02:24.007Z,50.03
2019-05-15T06:04:58.268Z,49.95
2019-05-15T06:07:29.932Z,47.66
2019-05-15T06:10:01.564Z,47.92
2019-05-15T06:12:33.192Z,46.75
2019-05-15T06:15:05.360Z,46.64
2019-05-15T06:17:39.247Z,49.33
2019-05-15T06:20:10.268Z,47.28
2019-05-15T06:22:41.804Z,46.93
2019-05-15T06:25:13.488Z,46.32
2019-05-15T06:27:45.074Z,43.68
2019-05-15T06:30:22.055Z,42.96
2019-05-15T06:33:04.440Z,43.75
2019-05-15T06:35:23.434Z,42.98
2019-05-15T06:37:55.036Z,45.01
2019-05-15T06:40:28.982Z,45.59
2019-05-15T06:43:00.138Z,43.62
2019-05-15T06:45:31.762Z,41.90
2019-05-15T06:48:03.364Z,42.69
2019-05-15T06:50:39.765Z,41.89
2019-05-15T06:53:11.837Z,41.81
2019-05-15T06:55:43.431Z,40.83
2019-05-15T06:58:15.017Z,40.76
2019-05-15T07:00:48.878Z,40.59
2019-05-15T07:03:25.245Z,40.50
2019-05-15T07:05:53.192Z,40.46
2019-05-15T07:08:24.806Z,39.57
2019-05-15T07:10:57.867Z,39.40
2019-05-15T07:13:29.659Z,39.57
2019-05-15T07:16:02.338Z,40.93
2019-05-15T07:18:34.016Z,39.90
2019-05-15T07:21:05.634Z,40.29
2019-05-15T07:23:38.663Z,40.03
2019-05-15T07:26:10.635Z,40.20
2019-05-15T07:28:42.192Z,41.01
2019-05-15T07:31:14.838Z,41.49
2019-05-15T07:33:48.823Z,40.92
2019-05-15T07:36:19.688Z,40.19
2019-05-15T07:38:51.249Z,39.95
2019-05-15T07:41:22.830Z,41.91
2019-05-15T07:43:54.381Z,40.79
2019-05-15T07:46:25.967Z,40.30
2019-05-15T07:48:58.327Z,39.85
2019-05-15T07:51:31.066Z,40.64
2019-05-15T07:54:02.843Z,39.38
2019-05-15T07:56:34.544Z,39.56
2019-05-15T07:59:08.019Z,40.03
2019-05-15T08:01:39.470Z,39.53
2019-05-15T08:04:25.154Z,39.91
2019-05-15T08:06:44.288Z,39.39
2019-05-15T08:09:17.841Z,39.18
2019-05-15T08:11:49.125Z,39.42
2019-05-15T08:14:20.696Z,38.74
2019-05-15T08:16:52.310Z,39.74
2019-05-15T08:19:23.821Z,40.26
2019-05-15T08:21:55.387Z,40.26
2019-05-15T08:24:29.794Z,39.99
2019-05-15T08:27:00.205Z,39.89
2019-05-15T08:29:31.770Z,40.93
2019-05-15T08:32:03.380Z,40.06
2019-05-15T08:34:34.940Z,40.56
2019-05-15T08:37:07.953Z,40.07
2019-05-15T08:39:39.672Z,39.47
2019-05-15T08:42:11.231Z,38.89
2019-05-15T08:44:42.982Z,39.54
2019-05-15T08:47:14.588Z,39.82
2019-05-15T08:49:48.364Z,39.26
2019-05-15T08:52:19.435Z,40.93
2019-05-15T08:54:51.014Z,39.83
2019-05-15T08:57:22.559Z,39.57
2019-05-15T08:59:54.167Z,39.91
2019-05-15T09:02:25.707Z,39.80
2019-05-15T09:04:58.079Z,40.52
2019-05-15T09:07:29.812Z,40.75
2019-05-15T09:10:01.404Z,38.81
2019-05-15T09:12:32.973Z,40.42
2019-05-15T09:15:04.540Z,40.64
2019-05-15T09:17:36.103Z,41.03
2019-05-15T09:20:09.393Z,40.29
2019-05-15T09:22:42.020Z,39.74
2019-05-15T09:25:13.932Z,40.38
2019-05-15T09:27:45.516Z,42.56
2019-05-15T09:30:18.255Z,39.89
2019-05-15T09:32:50.051Z,39.12
2019-05-15T09:35:22.628Z,39.58
2019-05-15T09:37:54.202Z,40.38
2019-05-15T09:40:39.491Z,41.53
2019-05-15T09:42:59.044Z,39.49
2019-05-15T09:45:30.633Z,39.74
2019-05-15T09:48:02.269Z,40.93
2019-05-15T09:50:33.812Z,39.54
2019-05-15T09:53:05.403Z,41.15
2019-05-15T09:55:38.344Z,40.11
2019-05-15T09:58:09.921Z,40.40
2019-05-15T10:00:41.486Z,41.71
2019-05-15T10:03:13.579Z,39.86
2019-05-15T10:05:45.280Z,39.97
2019-05-15T10:08:16.935Z,39.07
2019-05-15T10:10:48.909Z,40.31
2019-05-15T10:13:20.638Z,41.59
2019-05-15T10:15:52.182Z,40.20
2019-05-15T10:18:23.772Z,42.54
2019-05-15T10:20:57.591Z,38.53
2019-05-15T10:23:29.366Z,41.37
2019-05-15T10:26:01.210Z,37.62
2019-05-15T10:28:32.949Z,37.73
2019-05-15T10:31:04.519Z,39.31
2019-05-15T10:33:36.100Z,40.24
2019-05-15T10:36:08.414Z,38.80
2019-05-15T10:38:41.259Z,41.51
2019-05-15T10:41:15.253Z,37.79
2019-05-15T10:43:54.603Z,38.89
2019-05-15T10:46:19.537Z,39.35
2019-05-15T10:48:52.615Z,39.25
2019-05-15T10:51:24.184Z,40.23
2019-05-15T10:53:56.774Z,39.27
2019-05-15T10:56:29.165Z,39.12
2019-05-15T10:59:01.024Z,40.37
2019-05-15T11:01:32.797Z,39.02
2019-05-15T11:04:04.400Z,38.90
2019-05-15T11:06:38.275Z,38.10
2019-05-15T11:09:09.577Z,39.81
2019-05-15T11:11:41.173Z,39.23
2019-05-15T11:14:12.729Z,40.10
2019-05-15T11:16:44.314Z,38.53
2019-05-15T11:19:15.895Z,39.58
2019-05-15T11:21:48.598Z,40.02
2019-05-15T11:24:20.352Z,36.54
2019-05-15T11:26:51.931Z,38.29
2019-05-15T11:29:23.510Z,38.10
2019-05-15T11:31:55.083Z,38.71
2019-05-15T11:34:29.006Z,38.99
2019-05-15T11:36:59.921Z,39.56
2019-05-15T11:39:31.515Z,40.01
2019-05-15T11:42:03.094Z,39.30
2019-05-15T11:44:34.696Z,40.48
2019-05-15T11:47:06.281Z,39.02
2019-05-15T11:49:38.363Z,38.78
2019-05-15T11:52:10.193Z,39.36
2019-05-15T11:54:41.746Z,39.26
2019-05-15T11:57:14.032Z,38.22
2019-05-15T11:59:46.363Z,38.54
2019-05-15T12:02:19.062Z,38.56
2019-05-15T12:04:50.646Z,38.43
2019-05-15T12:07:22.216Z,38.27
2019-05-15T12:09:54.533Z,38.63
2019-05-15T12:12:31.310Z,38.13
2019-05-15T12:14:59.676Z,38.38
2019-05-15T12:17:34.091Z,38.59
2019-05-15T12:20:06.705Z,38.89
2019-05-15T12:22:39.138Z,37.90
2019-05-15T12:25:11.687Z,39.21
2019-05-15T12:27:43.539Z,39.04
2019-05-15T12:30:15.732Z,39.99
2019-05-15T12:32:49.246Z,39.05
2019-05-15T12:35:21.071Z,39.28
2019-05-15T12:37:52.619Z,40.94
2019-05-15T13:00:53.473Z,39.96
2019-05-15T13:03:25.051Z,42.35
2019-05-15T13:05:56.652Z,39.91
2019-05-15T13:08:29.069Z,40.06
2019-05-15T13:11:00.932Z,40.08
2019-05-15T13:13:33.566Z,40.69
2019-05-15T13:16:05.164Z,41.08
2019-05-15T13:18:38.774Z,41.48
2019-05-15T13:21:10.334Z,41.74
2019-05-15T13:23:41.911Z,39.48
2019-05-15T13:26:23.375Z,40.22
2019-05-15T13:28:48.873Z,40.12
2019-05-15T13:31:20.330Z,38.93
2019-05-15T13:33:51.938Z,39.71
2019-05-15T13:36:23.573Z,40.33
2019-05-15T13:38:55.146Z,39.64
2019-05-15T13:41:28.285Z,40.44
2019-05-15T13:44:00.150Z,39.84
2019-05-15T13:46:33.021Z,41.27
2019-05-15T13:49:04.867Z,39.36
2019-05-15T13:51:38.459Z,40.45
2019-05-15T13:54:09.755Z,40.60
2019-05-15T13:56:41.325Z,39.76
2019-05-15T13:59:12.909Z,41.14
2019-05-15T14:01:44.506Z,40.83
2019-05-15T14:04:18.379Z,39.49
2019-05-15T14:06:49.391Z,39.59
2019-05-15T14:09:20.982Z,39.97
2019-05-15T14:11:52.587Z,40.64
2019-05-15T14:14:24.685Z,40.04
2019-05-15T14:16:56.264Z,40.82
2019-05-15T14:19:29.534Z,40.31
2019-05-15T14:22:01.220Z,40.15
2019-05-15T14:24:32.810Z,40.24
2019-05-15T14:27:04.363Z,40.42
2019-05-15T14:29:35.944Z,40.16
2019-05-15T14:32:08.231Z,39.87
2019-05-15T14:34:40.017Z,39.90
2019-05-15T14:37:11.638Z,40.18
2019-05-15T14:39:43.240Z,41.25
2019-05-15T14:42:14.819Z,40.74
2019-05-15T14:44:59.226Z,41.20
2019-05-15T14:47:30.961Z,41.68
2019-05-15T14:50:02.625Z,42.28
2019-05-15T14:52:34.189Z,41.13
2019-05-15T14:55:06.270Z,41.18
2019-05-15T14:57:39.173Z,41.23
2019-05-15T15:00:11.887Z,41.72
2019-05-15T15:02:43.465Z,42.01
2019-05-15T15:05:15.048Z,42.30
2019-05-15T15:07:49.091Z,42.07
2019-05-15T15:10:20.482Z,42.01
2019-05-15T15:12:53.075Z,42.17
2019-05-15T15:15:24.616Z,41.98
2019-05-15T15:17:58.305Z,42.56
2019-05-15T15:20:29.489Z,42.14
2019-05-15T15:23:01.092Z,42.44
2019-05-15T15:25:32.676Z,42.89
2019-05-15T15:28:08.231Z,42.67
2019-05-15T15:30:40.213Z,42.75
2019-05-15T15:33:11.857Z,43.19
2019-05-15T15:35:43.436Z,42.99
2019-05-15T15:38:15.059Z,43.36
2019-05-15T15:40:48.163Z,43.78
2019-05-15T15:43:19.924Z,43.44
2019-05-15T15:45:51.499Z,43.20
2019-05-15T15:48:23.101Z,43.19
2019-05-15T15:50:54.689Z,43.51
2019-05-15T15:53:28.418Z,43.12
2019-05-15T15:56:00.645Z,43.68
2019-05-15T15:58:32.254Z,43.80
2019-05-15T16:01:03.842Z,43.47
2019-05-15T16:03:37.866Z,43.38
2019-05-15T16:06:08.692Z,43.44
2019-05-15T16:08:51.920Z,44.02
2019-05-15T16:11:13.591Z,44.27
2019-05-15T16:13:46.448Z,43.87
2019-05-15T16:16:18.504Z,42.87
2019-05-15T16:18:50.114Z,43.10
2019-05-15T16:21:21.974Z,41.50
2019-05-15T16:23:53.591Z,41.28
2019-05-15T16:26:26.218Z,40.57
2019-05-15T16:28:57.985Z,41.33
2019-05-15T16:31:31.170Z,40.53
2019-05-15T16:34:03.452Z,39.19
2019-05-15T16:36:35.050Z,39.76
2019-05-15T16:39:11.356Z,39.70
2019-05-15T16:41:41.500Z,38.97
2019-05-15T16:44:13.101Z,37.03
2019-05-15T16:46:44.967Z,36.39
2019-05-15T16:49:18.791Z,36.59
2019-05-15T16:51:50.141Z,36.78
2019-05-15T16:54:21.777Z,37.50
2019-05-15T16:56:53.668Z,38.50
2019-05-15T16:59:25.523Z,38.85
2019-05-15T17:01:57.128Z,38.65
2019-05-15T17:04:29.099Z,39.30
2019-05-15T17:07:00.715Z,39.62
2019-05-15T17:09:32.381Z,39.24
2019-05-15T17:12:04.265Z,40.04
2019-05-15T17:14:38.815Z,40.07
2019-05-15T17:17:09.443Z,40.53
2019-05-15T17:19:41.052Z,40.68
2019-05-15T17:22:13.072Z,40.55
2019-05-15T17:24:44.947Z,41.53
2019-05-15T17:27:18.227Z,40.76
2019-05-15T17:29:49.869Z,40.97
2019-05-15T17:32:21.470Z,41.21
2019-05-15T17:34:53.118Z,41.02
2019-05-15T17:37:24.733Z,41.24
2019-05-15T17:39:56.311Z,41.32
2019-05-15T17:42:28.938Z,40.95
2019-05-15T17:45:00.704Z,41.16
2019-05-15T17:47:32.293Z,41.35
2019-05-15T17:50:04.013Z,41.41
2019-05-15T17:52:35.614Z,41.84
2019-05-15T17:55:07.299Z,41.70
2019-05-15T17:57:39.120Z,41.85
2019-05-15T18:00:12.818Z,42.36
2019-05-15T18:02:44.765Z,42.63
2019-05-15T18:05:18.847Z,42.44
2019-05-15T18:07:50.018Z,42.81
2019-05-15T18:10:21.616Z,43.16
2019-05-15T18:12:53.241Z,43.00
2019-05-15T18:15:24.840Z,43.21
2019-05-15T18:17:59.168Z,43.20
2019-05-15T18:20:31.233Z,43.42
2019-05-15T18:23:02.978Z,43.76
2019-05-15T18:25:34.636Z,43.61
2019-05-15T18:28:08.557Z,44.06
2019-05-15T18:30:40.675Z,43.60
2019-05-15T18:33:12.298Z,44.51
2019-05-15T18:35:43.897Z,43.39
2019-05-15T18:38:15.540Z,43.63
2019-05-15T18:40:48.820Z,44.00
2019-05-15T18:43:20.460Z,43.12
2019-05-15T18:45:52.063Z,43.30
2019-05-15T18:48:23.715Z,43.54
2019-05-15T18:50:55.314Z,43.82
2019-05-15T18:53:28.339Z,43.88
2019-05-15T18:56:00.396Z,43.78
2019-05-15T18:58:32.025Z,43.84
2019-05-15T19:01:03.888Z,44.73
2019-05-15T19:03:35.553Z,44.31
2019-05-15T19:06:08.871Z,44.46
2019-05-15T19:08:40.768Z,45.14
2019-05-15T19:11:12.374Z,44.92
2019-05-15T19:13:43.968Z,44.97
2019-05-15T19:16:15.572Z,45.35
2019-05-15T19:18:47.941Z,45.21
2019-05-15T19:21:19.653Z,45.43
2019-05-15T19:23:51.372Z,45.83
2019-05-15T19:26:22.951Z,45.64
2019-05-15T19:28:54.573Z,45.80
2019-05-15T19:31:30.226Z,46.21
2019-05-15T19:34:01.179Z,46.32
2019-05-15T19:36:33.041Z,46.73
2019-05-15T19:39:07.919Z,46.98
2019-05-15T19:41:38.932Z,47.38
2019-05-15T19:44:10.621Z,47.74
2019-05-15T19:46:42.220Z,47.81
2019-05-15T19:49:14.032Z,47.77
2019-05-15T19:51:45.712Z,47.86
2019-05-15T19:54:18.391Z,48.20
2019-05-15T19:56:50.118Z,48.34
2019-05-15T19:59:22.645Z,48.85
2019-05-15T20:01:57.671Z,48.84
2019-05-15T20:04:29.218Z,48.98
2019-05-15T20:07:00.975Z,49.33
2019-05-15T20:09:32.638Z,49.36
2019-05-15T20:12:04.380Z,49.71
2019-05-15T20:14:38.179Z,49.49
2019-05-15T20:17:09.364Z,50.02
2019-05-15T20:19:41.087Z,50.40
2019-05-15T20:22:12.715Z,50.80
2019-05-15T20:24:44.383Z,51.00
2019-05-15T20:27:16.119Z,51.37
2019-05-15T20:29:49.401Z,51.14
2019-05-15T20:32:21.029Z,51.30
2019-05-15T20:34:52.646Z,52.02
2019-05-15T20:37:24.303Z,52.18
2019-05-15T20:39:57.949Z,52.30
2019-05-15T20:42:29.256Z,52.79
2019-05-15T20:45:00.838Z,52.74
2019-05-15T20:47:32.541Z,52.96
2019-05-15T20:50:04.182Z,53.11
2019-05-15T20:52:35.762Z,52.94
2019-05-15T20:55:07.993Z,53.30
2019-05-15T20:57:40.935Z,53.54
2019-05-15T21:00:14.506Z,53.81
2019-05-15T21:02:48.388Z,54.02
2019-05-15T21:05:19.435Z,54.17
2019-05-15T21:07:51.087Z,54.24
2019-05-15T21:10:22.974Z,54.47
2019-05-15T21:12:54.553Z,54.56
2019-05-15T21:15:26.133Z,54.59
2019-05-15T21:18:07.771Z,54.83
2019-05-15T21:20:31.031Z,54.51
2019-05-15T21:23:02.651Z,54.62
2019-05-15T21:25:34.290Z,54.93
2019-05-15T21:28:08.236Z,55.13
2019-05-15T21:30:41.039Z,55.50
2019-05-15T21:33:12.514Z,55.57
2019-05-15T21:35:44.115Z,55.72
2019-05-15T21:38:15.754Z,55.97
2019-05-15T21:40:47.958Z,55.70
2019-05-15T21:43:19.718Z,56.16
2019-05-15T21:45:51.349Z,56.60
2019-05-15T21:48:22.916Z,56.23
2019-05-15T21:50:54.710Z,56.29
2019-05-15T21:53:28.548Z,56.40
2019-05-15T21:55:59.602Z,56.76
2019-05-15T21:58:31.235Z,56.79
2019-05-15T22:01:03.124Z,56.77
2019-05-15T22:03:38.548Z,57.78
2019-05-15T22:06:09.582Z,57.88
2019-05-15T22:08:41.199Z,57.28
2019-05-15T22:11:12.858Z,56.98
2019-05-15T22:13:44.445Z,57.44
2019-05-15T22:16:18.330Z,58.02
2019-05-15T22:18:49.490Z,57.46
2019-05-15T22:21:21.063Z,57.52
2019-05-15T22:23:52.691Z,57.69
2019-05-15T22:26:24.249Z,58.49
2019-05-15T22:28:58.020Z,57.96
2019-05-15T22:31:29.106Z,57.66
2019-05-15T22:34:00.712Z,57.69
2019-05-15T22:36:32.359Z,58.82
2019-05-15T22:39:04.633Z,58.18
2019-05-15T22:41:38.735Z,58.20
2019-05-15T22:44:10.373Z,58.15
2019-05-15T22:46:41.921Z,58.87
2019-05-15T22:49:13.497Z,58.90
2019-05-15T22:51:48.471Z,58.65
2019-05-15T22:54:20.540Z,58.67
2019-05-15T22:56:52.267Z,59.13
2019-05-15T22:59:24.316Z,59.08
2019-05-15T23:01:58.052Z,59.83
2019-05-15T23:04:29.192Z,59.28
2019-05-15T23:07:00.768Z,59.22
2019-05-15T23:09:32.342Z,59.68
2019-05-15T23:12:04.129Z,59.75
2019-05-15T23:14:37.852Z,59.90
2019-05-15T23:17:08.943Z,60.21
2019-05-15T23:19:40.499Z,59.15
2019-05-15T23:22:12.199Z,60.33
2019-05-15T23:24:43.741Z,60.98
2019-05-15T23:27:15.358Z,61.22
2019-05-15T23:29:48.985Z,61.09
2019-05-15T23:32:20.190Z,61.11
2019-05-15T23:34:51.725Z,61.05
2019-05-15T23:37:23.295Z,61.53
2019-05-15T23:39:54.830Z,61.91
2019-05-15T23:42:29.029Z,63.37
2019-05-15T23:44:59.688Z,63.28
2019-05-15T23:47:31.238Z,62.92
2019-05-15T23:50:02.795Z,63.51
2019-05-15T23:52:34.342Z,63.82
2019-05-15T23:55:08.296Z,63.75
2019-05-15T23:57:39.507Z,63.66
